createdAt,value
2024-01-09T00:01:07.404Z,9.68
2024-01-09T00:03:40.182Z,10.70
2024-01-09T00:06:10.230Z,9.20
2024-01-09T00:08:40.485Z,9.48
2024-01-09T00:11:10.279Z,9.50
2024-01-09T00:13:40.056Z,9.23
2024-01-09T00:16:10.124Z,9.27
2024-01-09T00:18:42.570Z,10.13
2024-01-09T00:21:12.562Z,10.20
2024-01-09T00:23:43.612Z,9.82
2024-01-09T00:26:13.674Z,10.68
2024-01-09T00:28:43.455Z,9.30
2024-01-09T00:31:13.227Z,10.95
2024-01-09T00:33:45.695Z,9.30
2024-01-09T00:36:15.677Z,9.23
2024-01-09T00:38:45.803Z,9.02
2024-01-09T00:41:15.657Z,9.27
2024-01-09T00:43:45.780Z,9.27
2024-01-09T00:46:15.647Z,9.02
2024-01-09T00:48:49.540Z,11.02
2024-01-09T00:51:19.464Z,9.27
2024-01-09T00:53:49.521Z,9.90
2024-01-09T00:56:19.495Z,10.38
2024-01-09T00:58:49.359Z,8.65
2024-01-09T01:01:19.875Z,8.75
2024-01-09T01:03:52.425Z,8.80
2024-01-09T01:06:22.303Z,9.18
2024-01-09T01:08:52.108Z,9.45
2024-01-09T01:11:21.969Z,10.70
2024-01-09T01:13:52.113Z,8.63
2024-01-09T01:16:21.964Z,10.63
2024-01-09T01:18:54.459Z,9.50
2024-01-09T01:21:24.283Z,9.20
2024-01-09T01:23:54.128Z,11.02
2024-01-09T01:26:24.360Z,10.55
2024-01-09T01:28:54.242Z,10.13
2024-01-09T01:31:24.617Z,9.80
2024-01-09T01:33:57.175Z,9.15
2024-01-09T01:36:27.388Z,10.48
2024-01-09T01:38:57.265Z,9.35
2024-01-09T01:41:27.140Z,10.25
2024-01-09T01:43:57.249Z,10.43
2024-01-09T01:46:27.261Z,11.63
2024-01-09T01:48:59.795Z,9.82
2024-01-09T01:51:29.893Z,11.55
2024-01-09T01:54:00.148Z,10.90
2024-01-09T01:56:30.103Z,9.38
2024-01-09T01:59:00.080Z,10.07
2024-01-09T02:01:29.934Z,12.07
2024-01-09T02:04:03.147Z,10.63
2024-01-09T02:06:33.469Z,11.00
2024-01-09T02:09:03.279Z,10.65
2024-01-09T02:11:33.141Z,11.25
2024-01-09T02:14:02.972Z,9.88
2024-01-09T02:16:32.766Z,10.98
2024-01-09T02:19:05.266Z,10.75
2024-01-09T02:21:35.422Z,9.50
2024-01-09T02:24:05.279Z,10.82
2024-01-09T02:26:47.259Z,10.77
2024-01-09T02:29:25.868Z,11.18
2024-01-09T02:31:58.444Z,10.65
2024-01-09T02:34:28.418Z,10.00
2024-01-09T02:36:58.228Z,10.65
2024-01-09T02:39:31.144Z,11.05
2024-01-09T02:42:00.979Z,10.68
2024-01-09T02:44:30.894Z,11.07
2024-01-09T02:47:03.340Z,10.23
2024-01-09T02:52:03.504Z,10.20
2024-01-09T02:54:33.670Z,11.13
2024-01-09T02:57:03.535Z,11.32
2024-01-09T02:59:33.349Z,10.20
2024-01-09T03:02:06.175Z,11.65
2024-01-09T03:04:36.414Z,11.18
2024-01-09T03:07:06.972Z,10.90
2024-01-09T03:09:37.286Z,10.13
2024-01-09T03:12:08.724Z,10.77
2024-01-09T03:14:39.984Z,9.93
2024-01-09T03:17:13.033Z,10.63
2024-01-09T03:19:44.552Z,11.18
2024-01-09T03:22:14.644Z,11.03
2024-01-09T03:24:44.627Z,11.18
2024-01-09T03:27:14.824Z,9.77
2024-01-09T03:29:44.692Z,10.23
2024-01-09T03:32:17.490Z,12.20
2024-01-09T03:34:47.488Z,11.50
2024-01-09T03:37:17.816Z,10.52
2024-01-09T03:39:48.570Z,11.45
2024-01-09T03:42:21.627Z,10.20
2024-01-09T03:44:51.977Z,11.35
2024-01-09T03:47:24.958Z,11.23
2024-01-09T03:49:54.903Z,11.48
2024-01-09T03:52:25.080Z,11.63
2024-01-09T03:54:55.307Z,10.60
2024-01-09T03:57:25.457Z,10.70
2024-01-09T03:59:55.506Z,10.23
2024-01-09T04:02:28.397Z,11.40
2024-01-09T04:04:58.814Z,9.45
2024-01-09T04:07:28.974Z,10.40
2024-01-09T04:09:59.529Z,10.55
2024-01-09T04:12:31.764Z,10.73
2024-01-09T04:17:34.042Z,10.65
2024-01-09T04:20:06.076Z,11.45
2024-01-09T04:22:36.082Z,11.18
2024-01-09T04:25:14.864Z,11.45
2024-01-09T04:27:47.184Z,12.05
2024-01-09T04:32:49.874Z,9.82
2024-01-09T04:35:20.189Z,10.77
2024-01-09T04:37:50.340Z,9.75
2024-01-09T04:40:20.464Z,11.57
2024-01-09T04:42:50.465Z,11.48
2024-01-09T04:45:24.034Z,10.55
2024-01-09T04:47:57.101Z,10.90
2024-01-09T04:50:30.060Z,10.82
2024-01-09T04:53:00.432Z,12.30
2024-01-09T04:55:33.882Z,12.07
2024-01-09T04:58:06.772Z,10.35
2024-01-09T05:00:37.049Z,12.02
2024-01-09T05:03:09.966Z,12.02
2024-01-09T05:05:40.304Z,12.20
2024-01-09T05:08:10.797Z,11.40
2024-01-09T05:10:40.941Z,10.88
2024-01-09T05:13:11.198Z,11.88
2024-01-09T05:15:41.425Z,10.43
2024-01-09T05:18:20.579Z,12.25
2024-01-09T05:20:50.602Z,11.48
2024-01-09T05:23:21.270Z,11.38
2024-01-09T05:25:51.558Z,11.57
2024-01-09T05:28:21.405Z,11.80
2024-01-09T05:30:51.694Z,11.80
2024-01-09T05:33:24.793Z,11.35
2024-01-09T05:35:55.070Z,11.35
2024-01-09T05:38:25.249Z,12.13
2024-01-09T05:40:55.868Z,11.80
2024-01-09T05:43:26.081Z,11.27
2024-01-09T05:45:55.904Z,11.13
2024-01-09T05:48:28.861Z,13.68
2024-01-09T05:50:58.758Z,12.57
2024-01-09T05:53:28.935Z,11.65
2024-01-09T05:56:01.998Z,11.85
2024-01-09T05:58:32.025Z,12.43
2024-01-09T06:01:05.100Z,12.75
2024-01-09T06:03:37.995Z,10.25
2024-01-09T06:06:12.787Z,13.57
2024-01-09T06:08:46.469Z,11.90
2024-01-09T06:11:16.688Z,13.27
2024-01-09T06:13:46.967Z,12.77
2024-01-09T06:16:16.991Z,12.75
2024-01-09T06:18:49.986Z,13.32
2024-01-09T06:21:19.987Z,12.77
2024-01-09T06:23:50.817Z,11.90
2024-01-09T06:26:20.876Z,13.27
2024-01-09T06:28:51.142Z,12.88
2024-01-09T06:31:20.977Z,13.43
2024-01-09T06:33:53.959Z,12.75
2024-01-09T06:36:24.043Z,13.18
2024-01-09T06:38:54.127Z,11.40
2024-01-09T06:41:24.415Z,12.40
2024-01-09T06:43:54.287Z,13.60
2024-01-09T06:46:24.136Z,14.00
2024-01-09T06:48:56.751Z,11.88
2024-01-09T06:51:27.597Z,14.13
2024-01-09T06:53:57.600Z,13.80
2024-01-09T06:56:27.883Z,13.63
2024-01-09T06:58:57.918Z,12.75
2024-01-09T07:01:28.105Z,13.60
2024-01-09T07:04:00.541Z,13.63
2024-01-09T07:06:30.752Z,12.57
2024-01-09T07:09:00.626Z,13.70
2024-01-09T07:11:30.472Z,13.32
2024-01-09T07:14:00.296Z,13.00
2024-01-09T07:16:30.785Z,15.40
2024-01-09T07:19:03.652Z,15.10
2024-01-09T07:21:33.668Z,14.95
2024-01-09T07:24:03.531Z,14.38
2024-01-09T07:26:33.865Z,14.35
2024-01-09T07:29:03.698Z,15.77
2024-01-09T07:31:33.843Z,14.13
2024-01-09T07:34:06.349Z,13.82
2024-01-09T07:36:36.494Z,15.80
2024-01-09T07:39:07.126Z,13.77
2024-01-09T07:41:37.138Z,14.52
2024-01-09T07:44:07.281Z,14.27
2024-01-09T07:46:37.651Z,13.80
2024-01-09T07:49:10.501Z,13.35
2024-01-09T07:51:40.430Z,12.95
2024-01-09T07:54:10.609Z,13.43
2024-01-09T07:56:40.464Z,14.45
2024-01-09T07:59:10.872Z,15.05
2024-01-09T08:01:40.759Z,12.43
2024-01-09T08:04:13.958Z,13.20
2024-01-09T08:06:44.636Z,15.50
2024-01-09T08:09:15.271Z,14.68
2024-01-09T08:11:45.121Z,17.27
2024-01-09T08:14:15.267Z,15.93
2024-01-09T08:16:45.292Z,14.35
2024-01-09T08:19:18.065Z,14.43
2024-01-09T08:21:47.982Z,14.98
2024-01-09T08:24:20.135Z,13.75
2024-01-09T08:26:50.884Z,14.32
2024-01-09T08:29:20.843Z,14.43
2024-01-09T08:31:51.816Z,14.63
2024-01-09T08:34:24.610Z,15.68
2024-01-09T08:36:54.597Z,15.02
2024-01-09T08:39:24.706Z,15.15
2024-01-09T08:41:55.110Z,17.55
2024-01-09T08:44:26.595Z,15.77
2024-01-09T08:46:56.816Z,16.10
2024-01-09T08:49:29.235Z,15.07
2024-01-09T08:51:59.438Z,16.15
2024-01-09T08:54:29.651Z,16.45
2024-01-09T08:56:59.535Z,15.82
2024-01-09T08:59:29.668Z,16.33
2024-01-09T09:01:59.566Z,16.77
2024-01-09T09:04:32.332Z,17.30
2024-01-09T09:07:02.234Z,19.23
2024-01-09T09:09:35.499Z,17.92
2024-01-09T09:12:05.740Z,18.02
2024-01-09T09:14:35.690Z,18.33
2024-01-09T09:17:05.657Z,19.55
2024-01-09T09:19:38.494Z,19.13
2024-01-09T09:22:08.342Z,18.05
2024-01-09T09:24:38.162Z,18.33
2024-01-09T09:27:08.880Z,18.60
2024-01-09T09:29:40.299Z,18.88
2024-01-09T09:32:11.858Z,20.23
2024-01-09T09:34:46.740Z,17.00
2024-01-09T09:37:18.547Z,18.08
2024-01-09T09:39:48.624Z,17.55
2024-01-09T09:42:18.903Z,17.48
2024-01-09T09:44:50.631Z,19.23
2024-01-09T09:47:21.157Z,18.80
2024-01-09T09:49:55.075Z,20.20
2024-01-09T09:52:23.083Z,16.55
2024-01-09T09:54:53.869Z,17.98
2024-01-09T09:57:24.159Z,18.75
2024-01-09T09:59:54.068Z,18.38
2024-01-09T10:02:27.082Z,16.35
2024-01-09T10:05:01.618Z,17.33
2024-01-09T10:07:31.803Z,16.83
2024-01-09T10:10:02.574Z,18.65
2024-01-09T10:12:32.389Z,18.08
2024-01-09T10:15:09.208Z,19.25
2024-01-09T10:17:39.936Z,16.77
2024-01-09T10:20:14.565Z,18.52
2024-01-09T10:22:44.732Z,17.30
2024-01-09T10:25:15.337Z,16.52
2024-01-09T10:27:45.191Z,18.70
2024-01-09T10:30:15.417Z,18.38
2024-01-09T10:32:46.298Z,20.25
2024-01-09T10:35:19.379Z,19.45
2024-01-09T10:37:49.342Z,19.42
2024-01-09T10:40:19.248Z,20.23
2024-01-09T10:42:50.191Z,22.13
2024-01-09T10:45:21.210Z,19.10
2024-01-09T10:47:54.465Z,18.75
2024-01-09T10:50:27.509Z,18.80
2024-01-09T10:52:57.750Z,18.67
2024-01-09T10:55:27.635Z,17.92
2024-01-09T10:57:58.219Z,20.48
2024-01-09T11:00:28.792Z,19.75
2024-01-09T11:02:58.973Z,20.13
2024-01-09T11:05:31.741Z,17.27
2024-01-09T11:08:02.570Z,19.40
2024-01-09T11:10:32.615Z,19.50
2024-01-09T11:13:03.048Z,17.98
2024-01-09T11:15:35.127Z,19.52
2024-01-09T11:18:07.320Z,19.85
2024-01-09T11:20:40.439Z,19.13
2024-01-09T11:23:10.281Z,17.33
2024-01-09T11:25:40.082Z,18.02
2024-01-09T11:28:10.535Z,19.63
2024-01-09T11:30:40.318Z,18.83
2024-01-09T11:33:28.117Z,19.92
2024-01-09T11:36:06.883Z,18.55
2024-01-09T11:38:37.296Z,19.02
2024-01-09T11:41:07.527Z,19.23
2024-01-09T11:43:52.240Z,19.00
2024-01-09T11:46:22.133Z,18.80
2024-01-09T11:48:52.317Z,20.40
2024-01-09T11:51:25.238Z,18.77
2024-01-09T11:53:55.300Z,20.48
2024-01-09T11:56:25.359Z,18.38
2024-01-09T11:58:55.532Z,19.40
2024-01-09T12:01:26.498Z,18.83
2024-01-09T12:03:56.755Z,19.33
2024-01-09T12:06:31.008Z,18.95
2024-01-09T12:09:01.905Z,18.90
2024-01-09T12:11:32.041Z,18.50
2024-01-09T12:14:02.789Z,21.05
2024-01-09T12:16:34.032Z,18.50
2024-01-09T12:19:04.475Z,18.42
2024-01-09T12:21:37.502Z,19.92
2024-01-09T12:24:21.257Z,20.88
2024-01-09T12:26:54.805Z,20.55
2024-01-09T12:29:22.601Z,20.80
2024-01-09T12:31:53.033Z,18.52
2024-01-09T12:34:23.200Z,18.63
2024-01-09T12:36:55.694Z,17.85
2024-01-09T12:42:07.867Z,16.70
2024-01-09T12:44:40.189Z,17.38
2024-01-09T12:47:10.964Z,17.55
2024-01-09T12:49:59.293Z,19.60
2024-01-09T12:52:36.950Z,16.75
2024-01-09T12:55:08.472Z,16.88
2024-01-09T12:57:38.331Z,18.10
2024-01-09T13:00:09.198Z,18.55
2024-01-09T13:02:39.325Z,17.83
2024-01-09T13:05:11.248Z,18.40
2024-01-09T13:07:43.784Z,18.00
2024-01-09T13:12:43.282Z,16.98
2024-01-09T13:15:13.909Z,17.80
2024-01-09T13:17:44.186Z,18.42
2024-01-09T13:20:14.754Z,17.92
2024-01-09T13:25:20.456Z,18.00
2024-01-09T13:27:51.418Z,18.70
2024-01-09T13:30:47.458Z,19.83
2024-01-09T13:33:11.363Z,19.00
2024-01-09T13:35:41.610Z,18.92
2024-01-09T13:38:14.634Z,19.08
2024-01-09T13:40:44.583Z,17.55
2024-01-09T13:43:14.478Z,16.65
2024-01-09T13:45:44.950Z,18.65
2024-01-09T13:48:15.139Z,19.70
2024-01-09T13:51:48.948Z,19.20
2024-01-09T13:53:38.507Z,19.73
2024-01-09T13:58:40.056Z,22.00
2024-01-09T14:01:09.968Z,21.27
2024-01-09T14:03:41.737Z,21.25
2024-01-09T14:06:11.689Z,19.35
2024-01-09T14:08:44.051Z,19.10
2024-01-09T14:11:14.011Z,20.58
2024-01-09T14:13:43.871Z,19.45
2024-01-09T14:16:13.649Z,18.48
2024-01-09T14:18:45.743Z,19.30
2024-01-09T14:21:16.538Z,21.40
2024-01-09T14:23:49.782Z,17.88
2024-01-09T14:26:22.345Z,19.38
2024-01-09T14:28:52.381Z,21.55
2024-01-09T14:31:56.125Z,19.20
2024-01-09T14:34:26.466Z,18.80
2024-01-09T14:36:56.524Z,18.15
2024-01-09T14:39:30.563Z,18.67
2024-01-09T14:42:00.915Z,17.98
2024-01-09T14:47:35.974Z,18.33
2024-01-09T14:50:06.988Z,18.67
2024-01-09T14:52:37.166Z,15.73
2024-01-09T14:55:10.150Z,19.33
2024-01-09T14:57:41.539Z,17.98
2024-01-09T15:00:12.640Z,17.42
2024-01-09T15:02:42.943Z,18.55
2024-01-09T15:05:12.901Z,17.48
2024-01-09T15:07:46.038Z,17.30
2024-01-09T15:10:18.746Z,18.00
2024-01-09T15:12:48.819Z,19.70
2024-01-09T15:15:18.854Z,17.83
2024-01-09T15:17:49.318Z,18.40
2024-01-09T15:20:19.495Z,19.38
2024-01-09T15:22:49.573Z,19.05
2024-01-09T15:25:22.012Z,17.50
2024-01-09T15:30:21.749Z,18.40
2024-01-09T15:32:51.956Z,17.73
2024-01-09T15:35:25.515Z,17.45
2024-01-09T15:37:56.618Z,19.27
2024-01-09T15:40:31.732Z,19.58
2024-01-09T15:43:03.066Z,21.40
2024-01-09T15:45:33.410Z,21.20
2024-01-09T15:48:04.242Z,19.90
2024-01-09T15:50:34.147Z,22.08
2024-01-09T15:53:06.137Z,20.02
2024-01-09T15:58:11.638Z,18.98
2024-01-09T16:00:46.770Z,21.42
2024-01-09T16:03:21.007Z,22.15
2024-01-09T16:05:51.100Z,19.90
2024-01-09T16:08:21.987Z,20.48
2024-01-09T16:10:51.886Z,21.48
2024-01-09T16:13:28.192Z,20.88
2024-01-09T16:15:58.089Z,19.20
2024-01-09T16:18:28.238Z,18.63
2024-01-09T16:20:58.160Z,19.95
2024-01-09T16:23:28.107Z,20.70
2024-01-09T16:25:58.053Z,23.17
2024-01-09T16:28:30.607Z,28.30
2024-01-09T16:31:00.560Z,27.98
2024-01-09T16:33:30.855Z,30.17
2024-01-09T16:36:00.851Z,28.20
2024-01-09T16:38:30.807Z,26.13
2024-01-09T16:41:05.540Z,21.95
2024-01-09T16:43:38.444Z,19.88
2024-01-09T16:46:10.311Z,18.90
2024-01-09T16:48:49.804Z,19.02
2024-01-09T16:51:22.651Z,20.73
2024-01-09T16:53:53.463Z,19.10
2024-01-09T16:56:24.952Z,19.75
2024-01-09T16:58:57.625Z,19.27
2024-01-09T17:01:28.656Z,18.98
2024-01-09T17:03:58.997Z,18.25
2024-01-09T17:06:29.093Z,19.88
2024-01-09T17:08:58.950Z,24.13
2024-01-09T17:11:30.644Z,21.88
2024-01-09T17:16:34.466Z,18.98
2024-01-09T17:19:04.823Z,19.58
2024-01-09T17:21:35.334Z,22.00
2024-01-09T17:24:05.595Z,22.88
2024-01-09T17:26:39.680Z,21.85
2024-01-09T17:29:09.567Z,19.75
2024-01-09T17:31:42.391Z,21.52
2024-01-09T17:34:12.610Z,21.00
2024-01-09T17:36:43.080Z,17.35
2024-01-09T17:39:15.406Z,18.73
2024-01-09T17:41:45.284Z,19.45
2024-01-09T17:44:15.168Z,18.83
2024-01-09T17:46:48.040Z,21.25
2024-01-09T17:49:17.884Z,18.70
2024-01-09T17:51:48.181Z,15.82
2024-01-09T17:54:18.033Z,16.98
2024-01-09T17:56:47.857Z,18.05
2024-01-09T17:59:17.784Z,18.10
2024-01-09T18:01:53.973Z,17.77
2024-01-09T18:04:23.872Z,20.02
2024-01-09T18:06:53.760Z,21.00
2024-01-09T18:09:27.159Z,19.58
2024-01-09T18:11:57.530Z,17.80
2024-01-09T18:14:27.533Z,19.73
2024-01-09T18:17:00.323Z,17.70
2024-01-09T18:19:30.208Z,19.05
2024-01-09T18:22:00.562Z,18.67
2024-01-09T18:24:33.707Z,17.85
2024-01-09T18:27:06.349Z,19.45
2024-01-09T18:29:37.839Z,17.35
2024-01-09T18:32:10.956Z,19.02
2024-01-09T18:34:42.677Z,17.92
2024-01-09T18:37:13.141Z,18.88
2024-01-09T18:39:43.406Z,16.55
2024-01-09T18:42:13.351Z,17.95
2024-01-09T18:44:44.387Z,17.95
2024-01-09T18:47:19.996Z,17.83
2024-01-09T18:49:50.140Z,18.50
2024-01-09T18:52:20.365Z,15.88
2024-01-09T18:54:50.473Z,18.05
2024-01-09T18:57:22.058Z,17.92
2024-01-09T18:59:52.498Z,20.02
2024-01-09T19:02:25.260Z,17.98
2024-01-09T19:04:57.266Z,23.10
2024-01-09T19:07:27.911Z,21.52
2024-01-09T19:09:58.308Z,22.73
2024-01-09T19:12:29.385Z,22.30
2024-01-09T19:14:59.679Z,21.35
2024-01-09T19:17:32.321Z,20.38
2024-01-09T19:20:02.459Z,17.40
2024-01-09T19:22:33.151Z,18.98
2024-01-09T19:25:06.172Z,18.95
2024-01-09T19:27:41.381Z,18.35
2024-01-09T19:30:11.559Z,20.02
2024-01-09T19:32:44.691Z,18.67
2024-01-09T19:35:15.607Z,19.38
2024-01-09T19:37:49.275Z,19.92
2024-01-09T19:40:19.357Z,18.85
2024-01-09T19:42:52.362Z,18.13
2024-01-09T19:45:25.044Z,19.52
2024-01-09T19:48:02.253Z,18.38
2024-01-09T19:50:32.942Z,17.40
2024-01-09T19:53:16.228Z,18.33
2024-01-09T19:55:49.027Z,17.48
2024-01-09T19:58:20.665Z,18.55
2024-01-09T20:00:50.529Z,20.00
2024-01-09T20:03:23.307Z,18.80
2024-01-09T20:05:53.284Z,18.80
2024-01-09T20:08:25.786Z,21.42
2024-01-09T20:13:25.339Z,17.75
2024-01-09T20:15:55.057Z,19.45
2024-01-09T20:18:28.103Z,19.23
2024-01-09T20:20:57.923Z,20.00
2024-01-09T20:23:27.883Z,20.33
2024-01-09T20:25:57.701Z,18.85
2024-01-09T20:28:27.751Z,20.30
2024-01-09T20:30:58.523Z,19.92
2024-01-09T20:33:31.485Z,19.63
2024-01-09T20:36:01.260Z,21.20
2024-01-09T20:38:34.343Z,19.58
2024-01-09T20:41:06.460Z,18.70
2024-01-09T20:43:38.046Z,20.43
2024-01-09T20:46:11.637Z,20.07
2024-01-09T20:48:44.456Z,19.92
2024-01-09T20:51:14.577Z,20.77
2024-01-09T20:53:44.435Z,19.20
2024-01-09T20:56:14.336Z,21.52
2024-01-09T20:58:44.960Z,20.08
2024-01-09T21:01:14.817Z,22.17
2024-01-09T21:03:47.779Z,20.50
2024-01-09T21:06:18.444Z,19.67
2024-01-09T21:08:48.250Z,20.15
2024-01-09T21:11:18.725Z,22.02
2024-01-09T21:13:48.983Z,23.02
2024-01-09T21:16:18.762Z,22.38
2024-01-09T21:18:51.656Z,21.67
2024-01-09T21:21:21.847Z,21.15
2024-01-09T21:23:52.196Z,20.42
2024-01-09T21:26:22.070Z,22.58
2024-01-09T21:28:52.209Z,22.85
2024-01-09T21:31:22.141Z,20.77
2024-01-09T21:33:55.048Z,22.10
2024-01-09T21:36:24.842Z,21.40
2024-01-09T21:38:54.583Z,22.95
2024-01-09T21:41:24.398Z,20.70
2024-01-09T21:43:54.751Z,20.60
2024-01-09T21:46:24.572Z,19.35
2024-01-09T21:48:57.246Z,19.50
2024-01-09T21:51:27.337Z,19.50
2024-01-09T21:53:58.477Z,20.58
2024-01-09T21:56:28.786Z,20.95
2024-01-09T21:59:04.888Z,19.40
2024-01-09T22:01:34.847Z,21.52
2024-01-09T22:04:08.066Z,20.40
2024-01-09T22:06:37.948Z,22.25
2024-01-09T22:09:07.752Z,22.30
2024-01-09T22:11:37.493Z,22.17
2024-01-09T22:14:07.580Z,22.35
2024-01-09T22:16:37.438Z,22.40
2024-01-09T22:19:11.124Z,21.48
2024-01-09T22:21:45.854Z,23.13
2024-01-09T22:24:16.259Z,22.65
2024-01-09T22:26:48.252Z,22.55
2024-01-09T22:29:18.389Z,21.15
2024-01-09T22:31:48.309Z,24.77
2024-01-09T22:34:21.082Z,22.75
2024-01-09T22:36:51.154Z,23.10
2024-01-09T22:39:20.960Z,24.38
2024-01-09T22:41:51.564Z,23.77
2024-01-09T22:44:21.384Z,24.13
2024-01-09T22:46:51.247Z,23.48
2024-01-09T22:49:23.798Z,23.65
2024-01-09T22:51:54.441Z,22.20
2024-01-09T22:54:24.248Z,23.10
2024-01-09T22:56:54.333Z,24.05
2024-01-09T22:59:24.487Z,24.77
2024-01-09T23:01:54.584Z,26.90
2024-01-09T23:04:41.971Z,21.45
2024-01-09T23:07:11.838Z,23.08
2024-01-09T23:09:41.950Z,22.63
2024-01-09T23:12:12.347Z,22.90
2024-01-09T23:14:42.169Z,22.15
2024-01-09T23:17:11.940Z,24.98
2024-01-09T23:19:44.645Z,24.70
2024-01-09T23:22:14.753Z,23.63
2024-01-09T23:24:44.576Z,23.10
2024-01-09T23:27:14.350Z,25.10
2024-01-09T23:29:44.108Z,24.15
2024-01-09T23:32:13.951Z,23.10
2024-01-09T23:34:53.521Z,25.23
2024-01-09T23:37:32.728Z,24.33
2024-01-09T23:40:02.669Z,25.17
2024-01-09T23:42:32.760Z,23.90
2024-01-09T23:45:02.646Z,23.05
2024-01-09T23:47:32.540Z,25.83
2024-01-09T23:50:05.766Z,25.55
2024-01-09T23:52:36.377Z,24.88
2024-01-09T23:55:07.081Z,24.42
2024-01-09T23:57:36.870Z,22.38
